createdAt,value
2022-10-19T00:00:22.043Z,73.58
2022-10-19T00:02:53.546Z,73.93
2022-10-19T00:05:25.047Z,73.56
2022-10-19T00:07:56.547Z,73.23
2022-10-19T00:10:28.417Z,73.14
2022-10-19T00:13:00.631Z,74.48
2022-10-19T00:15:32.167Z,76.35
2022-10-19T00:18:03.903Z,77.51
2022-10-19T00:20:35.446Z,78.05
2022-10-19T00:23:05.742Z,79.51
2022-10-19T00:25:38.855Z,79.95
2022-10-19T00:28:10.539Z,80.28
2022-10-19T00:30:42.115Z,80.79
2022-10-19T00:33:13.894Z,81.56
2022-10-19T00:35:48.367Z,82.17
2022-10-19T00:38:20.596Z,82.53
2022-10-19T00:40:52.019Z,82.36
2022-10-19T00:43:25.282Z,82.10
2022-10-19T00:45:57.234Z,83.17
2022-10-19T00:48:33.429Z,83.99
2022-10-19T00:51:05.025Z,84.24
2022-10-19T00:53:37.841Z,84.13
2022-10-19T00:56:11.567Z,84.08
2022-10-19T00:58:43.147Z,83.86
2022-10-19T01:01:17.957Z,84.76
2022-10-19T01:03:49.485Z,85.89
2022-10-19T01:06:21.457Z,88.62
2022-10-19T01:08:52.820Z,89.96
2022-10-19T01:11:33.739Z,90.44
2022-10-19T01:14:14.885Z,90.60
2022-10-19T01:16:52.079Z,90.88
2022-10-19T01:19:36.835Z,91.37
2022-10-19T01:22:12.547Z,91.61
2022-10-19T01:24:52.157Z,91.58
2022-10-19T01:27:35.230Z,91.22
2022-10-19T01:30:09.493Z,90.88
2022-10-19T01:32:56.295Z,90.85
2022-10-19T01:35:33.139Z,91.16
2022-10-19T01:38:16.198Z,91.06
2022-10-19T01:40:49.966Z,90.49
2022-10-19T01:43:23.581Z,89.97
2022-10-19T01:45:55.751Z,89.90
2022-10-19T01:48:28.702Z,90.03
2022-10-19T01:51:01.708Z,90.00
2022-10-19T01:53:36.393Z,89.55
2022-10-19T01:56:08.363Z,89.04
2022-10-19T01:58:40.178Z,89.43
2022-10-19T02:03:43.051Z,90.02
2022-10-19T02:06:14.559Z,90.02
2022-10-19T02:08:47.644Z,90.15
2022-10-19T02:11:19.075Z,90.61
2022-10-19T02:13:52.648Z,91.02
2022-10-19T02:16:25.672Z,91.76
2022-10-19T02:18:57.043Z,92.86
2022-10-19T02:21:28.965Z,93.37
2022-10-19T02:24:00.413Z,93.89
2022-10-19T02:26:31.807Z,94.87
2022-10-19T02:29:03.685Z,95.43
2022-10-19T02:31:35.121Z,95.92
2022-10-19T02:34:06.546Z,96.31
2022-10-19T02:36:37.937Z,96.26
2022-10-19T02:39:09.427Z,96.36
2022-10-19T02:41:43.537Z,96.72
2022-10-19T02:44:18.523Z,96.72
2022-10-19T02:46:51.403Z,96.65
2022-10-19T02:49:22.891Z,96.70
2022-10-19T02:52:01.783Z,96.33
2022-10-19T02:54:33.445Z,96.09
2022-10-19T02:57:04.896Z,96.36
2022-10-19T02:59:36.728Z,96.72
2022-10-19T03:02:08.519Z,97.15
2022-10-19T03:04:42.048Z,96.98
2022-10-19T03:07:15.117Z,97.45
2022-10-19T03:09:46.704Z,98.09
2022-10-19T03:12:17.133Z,98.64
2022-10-19T03:14:49.080Z,99.81
2022-10-19T03:17:20.511Z,100.00
2022-10-19T03:19:52.686Z,100.00
2022-10-19T03:22:24.379Z,100.00
2022-10-19T03:24:56.101Z,100.00
2022-10-19T03:27:27.864Z,100.00
2022-10-19T03:29:59.410Z,100.00
2022-10-19T03:32:31.001Z,100.00
2022-10-19T03:35:02.810Z,100.00
2022-10-19T03:37:34.621Z,100.00
2022-10-19T03:40:08.155Z,100.00
2022-10-19T03:42:39.719Z,100.00
2022-10-19T03:45:12.878Z,100.00
2022-10-19T03:47:44.586Z,100.00
2022-10-19T03:50:17.309Z,100.00
2022-10-19T03:52:50.057Z,100.00
2022-10-19T03:55:22.182Z,100.00
2022-10-19T03:57:53.712Z,100.00
2022-10-19T04:00:25.731Z,100.00
2022-10-19T04:02:57.137Z,100.00
2022-10-19T04:05:27.935Z,100.00
2022-10-19T04:07:59.558Z,100.00
2022-10-19T04:10:29.717Z,100.00
2022-10-19T04:13:01.334Z,100.00
2022-10-19T04:15:31.614Z,100.00
2022-10-19T04:18:04.253Z,100.00
2022-10-19T04:20:36.316Z,100.00
2022-10-19T04:23:08.004Z,100.00
2022-10-19T04:25:39.870Z,100.00
2022-10-19T04:28:11.806Z,100.00
2022-10-19T04:30:48.396Z,100.00
2022-10-19T04:33:20.180Z,100.00
2022-10-19T04:35:52.489Z,100.00
2022-10-19T04:39:16.412Z,100.00
2022-10-19T04:42:13.414Z,100.00
2022-10-19T04:44:45.021Z,100.00
2022-10-19T04:47:15.019Z,100.00
2022-10-19T04:49:46.663Z,100.00
2022-10-19T04:52:18.091Z,100.00
2022-10-19T04:54:49.389Z,100.00
2022-10-19T04:57:20.818Z,100.00
2022-10-19T04:59:52.246Z,100.00
2022-10-19T05:02:23.996Z,100.00
2022-10-19T05:04:55.737Z,100.00
2022-10-19T05:07:27.509Z,100.00
2022-10-19T05:09:59.255Z,100.00
2022-10-19T05:12:30.918Z,100.00
2022-10-19T05:15:02.681Z,100.00
2022-10-19T05:17:34.910Z,100.00
2022-10-19T05:20:08.008Z,99.98
2022-10-19T05:22:40.130Z,99.41
2022-10-19T05:25:12.445Z,98.80
2022-10-19T05:27:43.895Z,98.58
2022-10-19T05:30:15.532Z,98.55
2022-10-19T05:32:47.591Z,98.33
2022-10-19T05:35:22.330Z,97.95
2022-10-19T05:37:58.666Z,97.37
2022-10-19T05:40:30.225Z,97.13
2022-10-19T05:43:01.827Z,97.11
2022-10-19T05:45:33.176Z,97.12
2022-10-19T05:48:04.729Z,96.81
2022-10-19T05:50:36.056Z,96.27
2022-10-19T05:53:06.479Z,95.70
2022-10-19T05:55:38.966Z,95.34
2022-10-19T05:58:10.688Z,95.29
2022-10-19T06:00:42.132Z,95.36
2022-10-19T06:03:12.680Z,95.28
2022-10-19T06:05:44.399Z,94.94
2022-10-19T06:08:16.299Z,94.34
2022-10-19T06:10:48.141Z,94.01
2022-10-19T06:13:20.912Z,94.05
2022-10-19T06:15:54.796Z,93.77
2022-10-19T06:18:26.780Z,93.26
2022-10-19T06:20:56.482Z,92.64
2022-10-19T06:23:28.673Z,91.97
2022-10-19T06:26:00.255Z,91.73
2022-10-19T06:28:30.370Z,92.02
2022-10-19T06:31:04.804Z,92.14
2022-10-19T06:33:39.130Z,91.96
2022-10-19T06:36:11.303Z,92.02
2022-10-19T06:38:43.587Z,92.40
2022-10-19T06:41:15.517Z,93.08
2022-10-19T06:43:47.505Z,93.04
2022-10-19T06:46:20.833Z,92.62
2022-10-19T06:49:47.316Z,92.50
2022-10-19T06:52:56.840Z,91.68
2022-10-19T06:55:28.394Z,91.18
2022-10-19T06:58:02.181Z,90.58
2022-10-19T07:00:34.151Z,89.66
2022-10-19T07:03:04.029Z,88.65
2022-10-19T07:05:35.663Z,88.05
2022-10-19T07:08:08.667Z,87.15
2022-10-19T07:10:41.014Z,86.38
2022-10-19T07:13:12.523Z,86.20
2022-10-19T07:15:44.022Z,85.69
2022-10-19T07:18:15.723Z,85.46
2022-10-19T07:20:54.819Z,84.72
2022-10-19T07:23:26.634Z,83.50
2022-10-19T07:26:01.351Z,82.95
2022-10-19T07:28:32.826Z,82.03
2022-10-19T07:31:07.968Z,81.01
2022-10-19T07:33:39.378Z,80.57
2022-10-19T07:36:11.630Z,79.92
2022-10-19T07:38:43.199Z,79.09
2022-10-19T07:41:15.402Z,78.20
2022-10-19T07:43:47.433Z,77.55
2022-10-19T07:46:19.843Z,76.84
2022-10-19T07:48:51.187Z,75.24
2022-10-19T07:51:23.092Z,74.34
2022-10-19T07:53:55.083Z,73.71
2022-10-19T07:56:27.468Z,72.94
2022-10-19T07:58:59.909Z,72.24
2022-10-19T08:01:32.505Z,71.74
2022-10-19T08:06:55.718Z,66.49
2022-10-19T08:09:51.522Z,65.84
2022-10-19T08:12:19.301Z,64.57
2022-10-19T08:14:49.164Z,62.70
2022-10-19T08:17:21.062Z,61.15
2022-10-19T08:19:52.634Z,60.88
2022-10-19T08:22:24.134Z,60.22
2022-10-19T08:24:55.595Z,59.98
2022-10-19T08:27:27.104Z,60.48
2022-10-19T08:29:58.570Z,57.88
2022-10-19T08:32:29.925Z,56.30
2022-10-19T08:35:01.527Z,54.17
2022-10-19T08:37:44.096Z,53.87
2022-10-19T08:40:20.566Z,50.61
2022-10-19T08:42:58.444Z,50.05
2022-10-19T08:45:46.811Z,49.64
2022-10-19T08:48:29.260Z,49.44
2022-10-19T08:51:01.116Z,49.10
2022-10-19T08:53:39.322Z,48.06
2022-10-19T08:56:38.884Z,46.86
2022-10-19T08:59:18.645Z,44.46
2022-10-19T09:01:52.385Z,44.55
2022-10-19T09:04:25.516Z,43.93
2022-10-19T09:07:14.493Z,42.88
2022-10-19T09:09:48.008Z,43.17
2022-10-19T09:12:20.758Z,43.70
2022-10-19T09:14:55.448Z,43.45
2022-10-19T09:17:34.957Z,42.83
2022-10-19T09:20:20.088Z,42.63
2022-10-19T09:22:56.688Z,42.61
2022-10-19T09:25:29.383Z,42.48
2022-10-19T09:28:07.798Z,42.16
2022-10-19T09:30:39.475Z,42.11
2022-10-19T09:33:15.406Z,41.23
2022-10-19T09:35:47.809Z,40.82
2022-10-19T09:38:20.062Z,41.10
2022-10-19T09:40:51.681Z,41.80
2022-10-19T09:43:23.198Z,41.35
2022-10-19T09:45:55.449Z,39.85
2022-10-19T09:48:30.454Z,39.97
2022-10-19T09:51:03.411Z,39.84
2022-10-19T09:53:34.817Z,39.54
2022-10-19T09:56:08.840Z,39.35
2022-10-19T09:58:40.333Z,38.72
2022-10-19T10:01:12.932Z,38.31
2022-10-19T10:03:44.771Z,37.92
2022-10-19T10:06:17.796Z,38.01
2022-10-19T10:08:51.012Z,37.82
2022-10-19T10:11:28.408Z,37.60
2022-10-19T10:14:01.004Z,37.50
2022-10-19T10:16:36.378Z,36.87
2022-10-19T10:19:09.336Z,36.86
2022-10-19T10:21:50.113Z,37.59
2022-10-19T10:24:22.626Z,37.73
2022-10-19T10:26:55.603Z,37.43
2022-10-19T10:29:28.473Z,36.93
2022-10-19T10:32:02.252Z,36.29
2022-10-19T10:34:49.799Z,36.63
2022-10-19T10:37:23.553Z,36.60
2022-10-19T10:39:57.919Z,35.75
2022-10-19T10:42:35.212Z,35.61
2022-10-19T10:45:11.449Z,35.17
2022-10-19T10:47:43.895Z,34.53
2022-10-19T10:50:21.079Z,34.42
2022-10-19T10:53:03.076Z,34.46
2022-10-19T10:55:34.835Z,34.23
2022-10-19T10:58:16.843Z,34.59
2022-10-19T11:00:46.659Z,34.48
2022-10-19T11:03:21.005Z,34.53
2022-10-19T11:05:53.654Z,34.02
2022-10-19T11:08:26.412Z,33.81
2022-10-19T11:11:00.657Z,33.88
2022-10-19T11:13:34.769Z,33.74
2022-10-19T11:16:08.389Z,33.66
2022-10-19T11:18:42.591Z,33.26
2022-10-19T11:21:16.291Z,33.51
2022-10-19T11:24:01.650Z,33.32
2022-10-19T11:26:58.281Z,33.39
2022-10-19T11:29:39.844Z,33.56
2022-10-19T11:32:16.014Z,33.50
2022-10-19T11:34:54.611Z,33.61
2022-10-19T11:37:29.656Z,33.89
2022-10-19T11:40:07.111Z,33.67
2022-10-19T11:45:28.932Z,33.77
2022-10-19T11:48:15.256Z,33.97
2022-10-19T11:50:54.194Z,33.48
2022-10-19T11:53:35.520Z,33.63
2022-10-19T11:56:10.642Z,33.47
2022-10-19T11:58:49.716Z,33.84
2022-10-19T12:01:27.811Z,33.62
2022-10-19T12:04:05.285Z,33.24
2022-10-19T12:06:41.141Z,33.35
2022-10-19T12:09:22.910Z,33.42
2022-10-19T12:12:03.677Z,33.37
2022-10-19T12:14:35.778Z,33.11
2022-10-19T12:17:09.818Z,33.20
2022-10-19T12:19:44.074Z,33.56
2022-10-19T12:22:18.954Z,33.62
2022-10-19T12:24:51.162Z,33.18
2022-10-19T12:27:25.111Z,33.33
2022-10-19T12:30:06.424Z,33.49
2022-10-19T12:32:44.686Z,34.01
2022-10-19T12:35:26.189Z,34.46
2022-10-19T12:37:59.198Z,34.92
2022-10-19T12:40:34.024Z,35.11
2022-10-19T12:43:09.186Z,34.91
2022-10-19T12:45:41.908Z,34.95
2022-10-19T12:48:21.612Z,35.04
2022-10-19T12:51:19.832Z,35.15
2022-10-19T12:53:51.635Z,35.06
2022-10-19T12:56:26.637Z,35.09
2022-10-19T12:59:01.716Z,35.54
2022-10-19T13:01:44.813Z,36.01
2022-10-19T13:04:17.578Z,36.41
2022-10-19T13:06:49.804Z,36.72
2022-10-19T13:09:28.184Z,37.02
2022-10-19T13:12:30.354Z,37.40
2022-10-19T13:15:02.228Z,37.86
2022-10-19T13:17:46.542Z,38.12
2022-10-19T13:20:51.456Z,38.35
2022-10-19T13:23:43.146Z,38.49
2022-10-19T13:26:35.975Z,38.65
2022-10-19T13:29:27.387Z,39.06
2022-10-19T13:31:58.906Z,39.53
2022-10-19T13:34:30.590Z,39.94
2022-10-19T13:37:03.847Z,40.27
2022-10-19T13:39:36.262Z,40.60
2022-10-19T13:42:13.728Z,40.90
2022-10-19T13:44:47.467Z,41.16
2022-10-19T13:50:37.948Z,41.86
2022-10-19T13:53:27.157Z,42.00
2022-10-19T13:56:19.006Z,42.40
2022-10-19T14:02:20.734Z,42.80
2022-10-19T14:04:57.540Z,43.21
2022-10-19T14:07:31.420Z,43.48
2022-10-19T14:10:14.532Z,43.80
2022-10-19T14:12:46.393Z,44.15
2022-10-19T14:15:25.588Z,44.54
2022-10-19T14:18:00.261Z,44.91
2022-10-19T14:20:41.249Z,45.04
2022-10-19T14:23:22.747Z,45.32
2022-10-19T14:25:56.529Z,45.62
2022-10-19T14:28:28.187Z,45.82
2022-10-19T14:30:58.987Z,46.13
2022-10-19T14:33:31.758Z,46.03
2022-10-19T14:36:03.712Z,46.35
2022-10-19T14:38:37.343Z,46.55
2022-10-19T14:41:18.907Z,46.95
2022-10-19T14:43:50.562Z,47.12
2022-10-19T14:46:22.111Z,47.20
2022-10-19T14:48:53.827Z,47.34
2022-10-19T14:51:31.796Z,47.50
2022-10-19T14:54:05.594Z,47.61
2022-10-19T14:56:40.857Z,47.77
2022-10-19T14:59:20.142Z,47.88
2022-10-19T15:01:54.076Z,48.23
2022-10-19T15:04:26.711Z,48.24
2022-10-19T15:06:58.179Z,48.47
2022-10-19T15:09:37.250Z,48.56
2022-10-19T15:12:10.257Z,48.84
2022-10-19T15:14:41.684Z,49.00
2022-10-19T15:17:26.507Z,49.55
2022-10-19T15:20:00.480Z,49.73
2022-10-19T15:22:42.098Z,50.04
2022-10-19T15:25:37.527Z,50.12
2022-10-19T15:28:39.029Z,50.15
2022-10-19T15:31:19.251Z,50.37
2022-10-19T15:33:52.539Z,50.90
2022-10-19T15:36:25.152Z,51.26
2022-10-19T15:39:17.875Z,51.64
2022-10-19T15:41:56.359Z,51.83
2022-10-19T15:44:46.876Z,52.13
2022-10-19T15:47:23.696Z,52.71
2022-10-19T15:49:57.213Z,52.81
2022-10-19T15:52:29.333Z,53.15
2022-10-19T15:55:01.377Z,53.37
2022-10-19T15:57:34.739Z,53.65
2022-10-19T16:00:12.593Z,54.03
2022-10-19T16:02:44.613Z,54.48
2022-10-19T16:05:16.715Z,54.75
2022-10-19T16:07:48.218Z,54.94
2022-10-19T16:10:21.832Z,55.08
2022-10-19T16:12:53.234Z,55.12
2022-10-19T16:15:25.348Z,55.22
2022-10-19T16:17:58.946Z,55.20
2022-10-19T16:20:31.532Z,55.45
2022-10-19T16:23:02.964Z,55.62
2022-10-19T16:25:34.596Z,55.78
2022-10-19T16:28:06.285Z,55.76
2022-10-19T16:30:35.988Z,56.39
2022-10-19T16:33:07.453Z,57.50
2022-10-19T16:35:40.017Z,58.31
2022-10-19T16:38:11.443Z,59.53
2022-10-19T16:40:42.956Z,61.85
2022-10-19T16:43:14.461Z,63.30
2022-10-19T16:45:46.721Z,65.36
2022-10-19T16:48:23.062Z,66.44
2022-10-19T16:51:21.516Z,66.93
2022-10-19T16:53:54.673Z,68.37
2022-10-19T16:56:27.290Z,69.11
2022-10-19T16:59:00.066Z,69.59
2022-10-19T17:01:31.775Z,69.82
2022-10-19T17:04:01.551Z,70.63
2022-10-19T17:06:33.776Z,71.62
2022-10-19T17:11:57.075Z,73.64
2022-10-19T17:14:28.563Z,74.33
2022-10-19T17:16:59.957Z,74.53
2022-10-19T17:19:31.407Z,75.65
2022-10-19T17:22:03.989Z,77.60
2022-10-19T17:24:37.525Z,79.30
2022-10-19T17:27:09.040Z,80.47
2022-10-19T17:29:40.494Z,81.31
2022-10-19T17:32:11.974Z,82.98
2022-10-19T17:34:43.607Z,84.59
2022-10-19T17:37:15.279Z,86.05
2022-10-19T17:39:46.834Z,88.03
2022-10-19T17:42:18.414Z,88.58
2022-10-19T17:44:49.811Z,89.84
2022-10-19T17:47:21.227Z,91.54
2022-10-19T17:49:52.681Z,92.62
2022-10-19T17:52:24.496Z,93.75
2022-10-19T17:55:11.817Z,94.29
2022-10-19T17:57:44.545Z,94.48
2022-10-19T18:00:17.508Z,95.03
2022-10-19T18:02:49.930Z,95.42
2022-10-19T18:05:21.555Z,95.54
2022-10-19T18:07:54.086Z,95.99
2022-10-19T18:10:25.687Z,96.35
2022-10-19T18:12:57.110Z,96.95
2022-10-19T18:15:28.596Z,97.16
2022-10-19T18:18:01.163Z,97.36
2022-10-19T18:20:33.009Z,97.37
2022-10-19T18:23:03.006Z,97.57
2022-10-19T18:25:52.948Z,98.21
2022-10-19T18:28:25.866Z,98.69
2022-10-19T18:30:55.778Z,98.82
2022-10-19T18:33:30.285Z,98.91
2022-10-19T18:36:03.953Z,99.10
2022-10-19T18:38:35.799Z,99.52
2022-10-19T18:41:08.048Z,99.91
2022-10-19T18:43:39.512Z,99.83
2022-10-19T18:46:11.122Z,99.96
2022-10-19T18:48:42.933Z,100.00
2022-10-19T18:51:13.314Z,100.00
2022-10-19T18:53:44.934Z,100.00
2022-10-19T18:56:17.341Z,100.00
2022-10-19T18:58:48.961Z,100.00
2022-10-19T19:01:19.856Z,100.00
2022-10-19T19:03:53.766Z,100.00
2022-10-19T19:06:26.508Z,100.00
2022-10-19T19:08:58.656Z,100.00
2022-10-19T19:11:34.275Z,100.00
2022-10-19T19:14:09.955Z,100.00
2022-10-19T19:16:41.937Z,100.00
2022-10-19T19:19:13.977Z,100.00
2022-10-19T19:21:45.777Z,100.00
2022-10-19T19:24:15.881Z,100.00
2022-10-19T19:26:49.670Z,100.00
2022-10-19T19:29:21.280Z,100.00
2022-10-19T19:31:53.703Z,100.00
2022-10-19T19:34:25.167Z,100.00
2022-10-19T19:36:56.697Z,100.00
2022-10-19T19:39:28.455Z,100.00
2022-10-19T19:41:58.158Z,100.00
2022-10-19T19:44:30.054Z,100.00
2022-10-19T19:47:02.127Z,100.00
2022-10-19T19:49:33.639Z,100.00
2022-10-19T19:52:05.025Z,100.00
2022-10-19T19:54:36.729Z,100.00
2022-10-19T19:57:08.060Z,100.00
2022-10-19T19:59:39.676Z,100.00
2022-10-19T20:02:12.041Z,100.00
2022-10-19T20:04:43.664Z,100.00
2022-10-19T20:07:15.216Z,100.00
2022-10-19T20:09:46.525Z,100.00
2022-10-19T20:12:17.976Z,100.00
2022-10-19T20:14:49.473Z,100.00
2022-10-19T20:17:23.970Z,100.00
2022-10-19T20:19:55.440Z,100.00
2022-10-19T20:22:26.985Z,100.00
2022-10-19T20:24:58.480Z,100.00
2022-10-19T20:27:29.972Z,100.00
2022-10-19T20:30:01.424Z,100.00
2022-10-19T20:32:33.480Z,100.00
2022-10-19T20:35:05.584Z,100.00
2022-10-19T20:37:37.052Z,100.00
2022-10-19T20:40:11.081Z,100.00
2022-10-19T20:42:42.621Z,100.00
2022-10-19T20:45:14.408Z,100.00
2022-10-19T20:47:44.187Z,100.00
2022-10-19T20:50:18.117Z,100.00
2022-10-19T20:52:52.325Z,100.00
2022-10-19T20:55:23.772Z,100.00
2022-10-19T20:57:55.211Z,100.00
2022-10-19T21:00:26.953Z,100.00
2022-10-19T21:02:56.658Z,100.00
2022-10-19T21:05:28.245Z,100.00
2022-10-19T21:07:59.925Z,100.00
2022-10-19T21:10:31.789Z,100.00
2022-10-19T21:13:03.205Z,100.00
2022-10-19T21:15:34.610Z,100.00
2022-10-19T21:18:06.184Z,100.00
2022-10-19T21:20:37.670Z,100.00
2022-10-19T21:23:09.310Z,100.00
2022-10-19T21:25:40.805Z,100.00
2022-10-19T21:28:12.322Z,100.00
2022-10-19T21:30:43.661Z,100.00
2022-10-19T21:33:15.349Z,100.00
2022-10-19T21:35:45.279Z,100.00
2022-10-19T21:38:16.981Z,100.00
2022-10-19T21:40:48.480Z,100.00
2022-10-19T21:43:20.312Z,100.00
2022-10-19T21:45:50.116Z,100.00
2022-10-19T21:48:21.481Z,100.00
2022-10-19T21:50:53.145Z,100.00
2022-10-19T21:53:23.792Z,100.00
2022-10-19T21:55:55.406Z,100.00
2022-10-19T21:58:26.791Z,100.00
2022-10-19T22:01:04.725Z,100.00
2022-10-19T22:03:36.556Z,100.00
2022-10-19T22:06:08.164Z,100.00
2022-10-19T22:08:39.589Z,100.00
2022-10-19T22:11:12.097Z,100.00
2022-10-19T22:13:43.443Z,100.00
2022-10-19T22:16:15.702Z,100.00
2022-10-19T22:18:47.175Z,100.00
2022-10-19T22:21:20.615Z,100.00
2022-10-19T22:23:54.866Z,100.00
2022-10-19T22:26:27.180Z,100.00
2022-10-19T22:28:59.358Z,100.00
2022-10-19T22:31:31.297Z,100.00
2022-10-19T22:34:03.463Z,100.00
2022-10-19T22:36:34.979Z,100.00
2022-10-19T22:39:06.599Z,100.00
2022-10-19T22:41:38.196Z,100.00
2022-10-19T22:44:09.649Z,100.00
2022-10-19T22:46:41.247Z,100.00
2022-10-19T22:49:12.820Z,100.00
2022-10-19T22:51:44.397Z,100.00
2022-10-19T22:54:14.411Z,100.00
2022-10-19T22:56:45.926Z,100.00
2022-10-19T22:59:17.634Z,100.00
2022-10-19T23:01:49.160Z,100.00
2022-10-19T23:04:21.458Z,100.00
2022-10-19T23:06:52.971Z,100.00
2022-10-19T23:09:24.867Z,100.00
2022-10-19T23:11:54.647Z,100.00
2022-10-19T23:14:26.705Z,100.00
2022-10-19T23:16:56.421Z,100.00
2022-10-19T23:19:27.898Z,100.00
2022-10-19T23:21:59.323Z,100.00
2022-10-19T23:24:30.716Z,100.00
2022-10-19T23:27:02.421Z,100.00
2022-10-19T23:29:32.228Z,100.00
2022-10-19T23:32:03.844Z,100.00
2022-10-19T23:37:10.204Z,100.00
2022-10-19T23:39:40.074Z,100.00
2022-10-19T23:42:11.756Z,100.00
2022-10-19T23:44:43.253Z,100.00
2022-10-19T23:47:14.903Z,100.00
2022-10-19T23:49:44.681Z,100.00
2022-10-19T23:52:16.338Z,100.00
2022-10-19T23:54:47.838Z,100.00
2022-10-19T23:57:19.414Z,100.00
2022-10-19T23:59:50.799Z,100.00
